createdAt,value
2019-01-28T00:00:32.963Z,4.50
2019-01-28T00:01:32.875Z,4.30
2019-01-28T00:02:32.788Z,4.10
2019-01-28T00:03:32.717Z,4.30
2019-01-28T00:04:32.614Z,4.40
2019-01-28T00:05:32.528Z,4.20
2019-01-28T00:06:32.445Z,4.60
2019-01-28T00:07:32.353Z,4.60
2019-01-28T00:08:32.276Z,4.60
2019-01-28T00:09:32.189Z,5.10
2019-01-28T00:10:32.115Z,4.40
2019-01-28T00:11:32.014Z,4.50
2019-01-28T00:12:31.926Z,4.60
2019-01-28T00:13:31.839Z,4.70
2019-01-28T00:14:31.752Z,4.50
2019-01-28T00:15:31.664Z,5.00
2019-01-28T00:16:31.589Z,4.80
2019-01-28T00:17:31.503Z,5.00
2019-01-28T00:18:31.417Z,4.80
2019-01-28T00:19:31.327Z,4.90
2019-01-28T00:20:31.242Z,4.80
2019-01-28T00:21:31.152Z,4.70
2019-01-28T00:22:31.065Z,4.70
2019-01-28T00:23:30.977Z,4.90
2019-01-28T00:24:30.892Z,4.60
2019-01-28T00:25:30.816Z,4.80
2019-01-28T00:26:30.728Z,4.50
2019-01-28T00:27:30.641Z,5.00
2019-01-28T00:28:30.553Z,4.60
2019-01-28T00:29:30.470Z,4.90
2019-01-28T00:30:30.379Z,4.80
2019-01-28T00:31:30.292Z,5.20
2019-01-28T00:32:30.217Z,4.30
2019-01-28T00:33:30.119Z,5.00
2019-01-28T00:34:30.031Z,4.70
2019-01-28T00:35:29.953Z,4.90
2019-01-28T00:36:29.866Z,4.90
2019-01-28T00:37:29.784Z,4.70
2019-01-28T00:38:29.692Z,5.20
2019-01-28T00:39:29.605Z,5.30
2019-01-28T00:40:29.518Z,4.80
2019-01-28T00:41:29.430Z,5.50
2019-01-28T00:42:29.345Z,5.20
2019-01-28T00:43:29.268Z,5.20
2019-01-28T00:44:29.179Z,5.10
2019-01-28T00:45:29.093Z,4.70
2019-01-28T00:46:29.005Z,5.20
2019-01-28T00:47:28.917Z,5.10
2019-01-28T00:48:28.842Z,5.20
2019-01-28T00:49:28.744Z,4.90
2019-01-28T00:50:28.655Z,4.80
2019-01-28T00:51:28.580Z,5.20
2019-01-28T00:52:28.493Z,4.90
2019-01-28T00:53:28.405Z,5.20
2019-01-28T00:54:28.319Z,5.10
2019-01-28T00:55:28.254Z,5.00
2019-01-28T00:56:28.144Z,4.70
2019-01-28T00:57:28.056Z,5.40
2019-01-28T00:58:27.970Z,5.40
2019-01-28T00:59:27.882Z,5.20
2019-01-28T01:00:27.806Z,4.90
2019-01-28T01:01:27.719Z,5.30
2019-01-28T01:02:27.632Z,5.10
2019-01-28T01:03:27.548Z,5.30
2019-01-28T01:04:27.456Z,5.40
2019-01-28T01:05:27.379Z,5.10
2019-01-28T01:06:27.296Z,5.30
2019-01-28T01:07:27.195Z,5.40
2019-01-28T01:08:27.126Z,5.70
2019-01-28T01:09:27.032Z,5.50
2019-01-28T01:10:26.945Z,5.40
2019-01-28T01:11:26.857Z,5.30
2019-01-28T01:12:26.783Z,5.70
2019-01-28T01:13:26.683Z,5.10
2019-01-28T01:14:26.598Z,5.40
2019-01-28T01:15:26.510Z,5.60
2019-01-28T01:16:26.433Z,5.10
2019-01-28T01:17:26.347Z,5.60
2019-01-28T01:18:26.263Z,5.70
2019-01-28T01:19:26.172Z,5.30
2019-01-28T01:20:26.084Z,5.40
2019-01-28T01:21:25.996Z,5.70
2019-01-28T01:22:25.921Z,5.60
2019-01-28T01:23:25.823Z,5.30
2019-01-28T01:24:25.748Z,5.60
2019-01-28T01:25:25.659Z,5.70
2019-01-28T01:26:25.573Z,5.90
2019-01-28T01:27:25.484Z,5.60
2019-01-28T01:28:25.399Z,5.30
2019-01-28T01:29:25.309Z,5.50
2019-01-28T01:30:25.222Z,5.70
2019-01-28T01:31:25.136Z,6.10
2019-01-28T01:32:25.072Z,6.20
2019-01-28T01:33:24.973Z,5.90
2019-01-28T01:34:24.885Z,6.90
2019-01-28T01:35:24.800Z,6.60
2019-01-28T01:36:24.709Z,6.90
2019-01-28T01:37:24.623Z,7.40
2019-01-28T01:38:24.535Z,7.10
2019-01-28T01:39:24.460Z,7.60
2019-01-28T01:40:24.372Z,7.70
2019-01-28T01:41:24.286Z,7.70
2019-01-28T01:42:24.205Z,7.50
2019-01-28T01:43:24.110Z,8.40
2019-01-28T01:44:24.024Z,8.40
2019-01-28T01:45:23.936Z,7.70
2019-01-28T01:46:23.853Z,8.10
2019-01-28T01:47:23.766Z,8.70
2019-01-28T01:48:23.687Z,8.50
2019-01-28T01:49:25.266Z,8.40
2019-01-28T01:50:23.511Z,9.00
2019-01-28T01:51:23.424Z,8.80
2019-01-28T01:52:23.336Z,9.40
2019-01-28T01:53:23.262Z,9.40
2019-01-28T01:54:23.161Z,9.20
2019-01-28T01:55:23.075Z,9.20
2019-01-28T01:56:22.988Z,8.60
2019-01-28T01:57:22.912Z,9.40
2019-01-28T01:58:22.814Z,9.60
2019-01-28T01:59:22.738Z,9.60
2019-01-28T02:00:22.650Z,9.80
2019-01-28T02:01:22.562Z,10.10
2019-01-28T02:02:22.476Z,10.50
2019-01-28T02:03:22.388Z,10.40
2019-01-28T02:04:22.303Z,10.60
2019-01-28T02:05:22.212Z,10.80
2019-01-28T02:06:22.126Z,10.60
2019-01-28T02:07:22.051Z,10.80
2019-01-28T02:08:21.963Z,11.00
2019-01-28T02:09:21.880Z,10.90
2019-01-28T02:10:21.788Z,11.80
2019-01-28T02:11:21.701Z,11.80
2019-01-28T02:12:21.614Z,11.70
2019-01-28T02:13:21.529Z,10.90
2019-01-28T02:14:21.439Z,10.80
2019-01-28T02:15:21.351Z,11.10
2019-01-28T02:16:21.264Z,12.10
2019-01-28T02:17:21.177Z,11.20
2019-01-28T02:18:21.092Z,11.70
2019-01-28T02:19:21.014Z,11.90
2019-01-28T02:20:20.928Z,12.20
2019-01-28T02:21:20.839Z,12.10
2019-01-28T02:22:20.753Z,12.40
2019-01-28T02:23:20.666Z,11.70
2019-01-28T02:24:20.579Z,12.20
2019-01-28T02:25:20.491Z,12.30
2019-01-28T02:26:20.403Z,12.40
2019-01-28T02:27:20.316Z,12.90
2019-01-28T02:28:20.229Z,12.10
2019-01-28T02:29:20.154Z,12.80
2019-01-28T02:30:20.068Z,12.20
2019-01-28T02:31:19.980Z,12.50
2019-01-28T02:32:19.890Z,12.90
2019-01-28T02:33:19.805Z,12.30
2019-01-28T02:34:19.715Z,12.10
2019-01-28T02:35:19.630Z,11.80
2019-01-28T02:36:19.540Z,12.40
2019-01-28T02:37:19.454Z,12.20
2019-01-28T02:38:19.367Z,12.30
2019-01-28T02:39:19.294Z,12.20
2019-01-28T02:40:19.205Z,12.40
2019-01-28T02:41:19.133Z,12.40
2019-01-28T02:42:19.030Z,12.20
2019-01-28T02:43:18.944Z,11.40
2019-01-28T02:44:18.856Z,11.60
2019-01-28T02:45:18.766Z,12.40
2019-01-28T02:46:18.683Z,11.40
2019-01-28T02:47:18.594Z,11.10
2019-01-28T02:48:18.519Z,11.70
2019-01-28T02:49:18.431Z,11.20
2019-01-28T02:50:18.357Z,11.70
2019-01-28T02:51:18.256Z,11.60
2019-01-28T02:52:18.169Z,11.50
2019-01-28T02:53:18.081Z,10.90
2019-01-28T02:54:17.994Z,11.30
2019-01-28T02:55:17.918Z,11.10
2019-01-28T02:56:17.827Z,10.70
2019-01-28T02:57:17.758Z,10.20
2019-01-28T02:58:17.660Z,10.60
2019-01-28T02:59:17.580Z,10.40
2019-01-28T03:00:17.482Z,10.60
2019-01-28T03:01:17.394Z,10.10
2019-01-28T03:02:17.307Z,9.90
2019-01-28T03:03:17.220Z,9.70
2019-01-28T03:04:17.132Z,9.40
2019-01-28T03:05:17.044Z,8.60
2019-01-28T03:06:16.958Z,8.40
2019-01-28T03:07:16.882Z,8.60
2019-01-28T03:08:16.793Z,8.50
2019-01-28T03:09:16.708Z,8.10
2019-01-28T03:10:16.623Z,8.00
2019-01-28T03:11:16.533Z,8.10
2019-01-28T03:12:16.450Z,7.50
2019-01-28T03:13:16.358Z,7.70
2019-01-28T03:14:16.269Z,7.00
2019-01-28T03:15:16.208Z,7.20
2019-01-28T03:16:16.110Z,7.20
2019-01-28T03:17:16.021Z,6.90
2019-01-28T03:18:15.933Z,6.90
2019-01-28T03:19:15.845Z,6.70
2019-01-28T03:20:15.758Z,7.20
2019-01-28T03:21:15.670Z,6.50
2019-01-28T03:22:15.583Z,6.30
2019-01-28T03:23:15.495Z,5.90
2019-01-28T03:24:15.409Z,6.50
2019-01-28T03:25:15.320Z,6.40
2019-01-28T03:26:15.236Z,6.30
2019-01-28T03:27:15.146Z,5.90
2019-01-28T03:28:15.071Z,6.20
2019-01-28T03:29:14.986Z,6.10
2019-01-28T03:30:14.910Z,5.70
2019-01-28T03:31:14.811Z,6.30
2019-01-28T03:32:14.723Z,5.80
2019-01-28T03:33:14.639Z,5.70
2019-01-28T03:34:14.548Z,6.30
2019-01-28T03:35:14.461Z,6.00
2019-01-28T03:36:14.372Z,5.80
2019-01-28T03:37:14.285Z,6.10
2019-01-28T03:38:14.196Z,5.90
2019-01-28T03:39:14.110Z,5.60
2019-01-28T03:40:14.035Z,5.20
2019-01-28T03:41:13.949Z,5.90
2019-01-28T03:42:13.862Z,5.40
2019-01-28T03:43:13.774Z,5.40
2019-01-28T03:44:13.687Z,5.70
2019-01-28T03:45:13.605Z,5.50
2019-01-28T03:46:13.511Z,5.10
2019-01-28T03:47:13.423Z,5.80
2019-01-28T03:48:13.336Z,4.90
2019-01-28T03:49:13.262Z,5.00
2019-01-28T03:50:13.162Z,4.70
2019-01-28T03:51:13.073Z,4.60
2019-01-28T03:52:12.988Z,4.50
2019-01-28T03:53:12.914Z,4.80
2019-01-28T03:54:12.824Z,4.80
2019-01-28T03:55:12.737Z,4.40
2019-01-28T03:56:12.649Z,4.10
2019-01-28T03:57:12.562Z,4.80
2019-01-28T03:58:12.475Z,4.90
2019-01-28T03:59:12.391Z,4.90
2019-01-28T04:00:12.313Z,4.50
2019-01-28T04:01:12.212Z,4.30
2019-01-28T04:02:12.126Z,4.80
2019-01-28T04:03:12.041Z,4.60
2019-01-28T04:04:11.950Z,5.00
2019-01-28T04:05:11.862Z,4.70
2019-01-28T04:06:11.775Z,4.80
2019-01-28T04:07:11.699Z,4.00
2019-01-28T04:08:11.617Z,3.80
2019-01-28T04:09:11.527Z,3.90
2019-01-28T04:10:11.448Z,3.90
2019-01-28T04:11:11.355Z,3.40
2019-01-28T04:12:11.263Z,3.60
2019-01-28T04:13:11.178Z,3.50
2019-01-28T04:14:11.091Z,3.30
2019-01-28T04:15:11.015Z,3.20
2019-01-28T04:16:10.915Z,3.20
2019-01-28T04:17:10.827Z,3.40
2019-01-28T04:18:10.740Z,3.50
2019-01-28T04:19:10.650Z,4.10
2019-01-28T04:20:10.566Z,4.00
2019-01-28T04:21:10.478Z,4.10
2019-01-28T04:22:10.390Z,3.80
2019-01-28T04:23:10.303Z,3.90
2019-01-28T04:24:10.228Z,4.10
2019-01-28T04:25:10.142Z,4.00
2019-01-28T04:26:10.053Z,4.10
2019-01-28T04:27:09.965Z,4.00
2019-01-28T04:28:09.877Z,3.60
2019-01-28T04:29:09.794Z,3.80
2019-01-28T04:30:09.707Z,3.70
2019-01-28T04:31:09.616Z,3.90
2019-01-28T04:32:09.540Z,3.70
2019-01-28T04:33:09.440Z,3.90
2019-01-28T04:34:09.352Z,4.30
2019-01-28T04:35:09.265Z,3.60
2019-01-28T04:36:09.178Z,4.00
2019-01-28T04:37:09.091Z,3.80
2019-01-28T04:38:09.003Z,4.20
2019-01-28T04:39:08.917Z,4.50
2019-01-28T04:40:08.830Z,4.00
2019-01-28T04:41:08.742Z,4.40
2019-01-28T04:42:08.654Z,4.50
2019-01-28T04:43:08.566Z,4.60
2019-01-28T04:44:08.481Z,4.20
2019-01-28T04:45:08.405Z,4.20
2019-01-28T04:46:08.305Z,4.40
2019-01-28T04:47:08.230Z,4.70
2019-01-28T04:48:08.143Z,4.80
2019-01-28T04:49:08.056Z,4.60
2019-01-28T04:50:07.968Z,4.50
2019-01-28T04:51:07.893Z,4.40
2019-01-28T04:52:07.794Z,4.70
2019-01-28T04:53:07.704Z,4.50
2019-01-28T04:54:07.619Z,4.90
2019-01-28T04:55:07.530Z,4.60
2019-01-28T04:56:07.445Z,5.40
2019-01-28T04:57:07.356Z,5.00
2019-01-28T04:58:07.278Z,4.90
2019-01-28T04:59:07.181Z,5.00
2019-01-28T05:00:07.093Z,5.10
2019-01-28T05:01:07.007Z,5.00
2019-01-28T05:02:06.919Z,5.60
2019-01-28T05:03:06.830Z,5.30
2019-01-28T05:04:06.744Z,5.50
2019-01-28T05:05:06.657Z,5.40
2019-01-28T05:06:06.569Z,5.60
2019-01-28T05:07:06.481Z,5.80
2019-01-28T05:08:06.394Z,5.20
2019-01-28T05:09:06.321Z,5.30
2019-01-28T05:10:06.219Z,5.30
2019-01-28T05:11:06.132Z,5.40
2019-01-28T05:12:06.044Z,5.70
2019-01-28T05:13:05.958Z,5.70
2019-01-28T05:14:05.881Z,5.70
2019-01-28T05:15:05.787Z,5.60
2019-01-28T05:16:05.719Z,5.80
2019-01-28T05:17:05.620Z,6.00
2019-01-28T05:18:05.532Z,6.00
2019-01-28T05:19:05.446Z,6.10
2019-01-28T05:20:05.357Z,6.00
2019-01-28T05:21:05.272Z,6.20
2019-01-28T05:22:05.189Z,5.80
2019-01-28T05:23:05.105Z,6.10
2019-01-28T05:24:05.009Z,5.90
2019-01-28T05:25:04.921Z,5.60
2019-01-28T05:26:04.833Z,6.10
2019-01-28T05:27:04.751Z,6.20
2019-01-28T05:28:04.677Z,5.70
2019-01-28T05:29:04.572Z,6.20
2019-01-28T05:30:04.484Z,6.00
2019-01-28T05:31:04.399Z,6.40
2019-01-28T05:32:04.310Z,5.90
2019-01-28T05:33:04.222Z,6.20
2019-01-28T05:34:04.133Z,6.40
2019-01-28T05:35:04.049Z,6.20
2019-01-28T05:36:03.961Z,6.20
2019-01-28T05:37:03.874Z,6.10
2019-01-28T05:38:03.796Z,6.30
2019-01-28T05:39:03.702Z,6.50
2019-01-28T05:40:03.609Z,6.70
2019-01-28T05:41:03.525Z,7.00
2019-01-28T05:42:03.434Z,6.90
2019-01-28T05:43:03.348Z,7.90
2019-01-28T05:44:03.272Z,8.50
2019-01-28T05:45:03.173Z,8.80
2019-01-28T05:46:03.084Z,8.00
2019-01-28T05:47:03.004Z,8.00
2019-01-28T05:48:02.911Z,7.80
2019-01-28T05:49:02.823Z,8.10
2019-01-28T05:50:02.735Z,8.10
2019-01-28T05:51:02.648Z,8.10
2019-01-28T05:52:02.564Z,7.90
2019-01-28T05:53:02.477Z,7.80
2019-01-28T05:54:02.393Z,7.60
2019-01-28T05:55:02.303Z,8.10
2019-01-28T05:56:02.212Z,7.20
2019-01-28T05:57:02.135Z,7.70
2019-01-28T05:58:02.040Z,7.40
2019-01-28T05:59:01.951Z,6.60
2019-01-28T06:00:01.865Z,7.60
2019-01-28T06:01:01.776Z,6.90
2019-01-28T06:02:01.703Z,7.40
2019-01-28T06:03:01.600Z,6.90
2019-01-28T06:04:01.516Z,7.20
2019-01-28T06:05:01.427Z,7.50
2019-01-28T06:06:01.339Z,7.50
2019-01-28T06:07:01.261Z,7.10
2019-01-28T06:08:01.162Z,7.00
2019-01-28T06:09:01.075Z,7.10
2019-01-28T06:10:00.987Z,7.50
2019-01-28T06:11:00.901Z,6.90
2019-01-28T06:12:00.812Z,6.90
2019-01-28T06:13:00.726Z,6.80
2019-01-28T06:14:00.639Z,7.50
2019-01-28T06:15:00.551Z,6.80
2019-01-28T06:16:00.462Z,7.30
2019-01-28T06:17:00.382Z,7.60
2019-01-28T06:18:00.288Z,7.10
2019-01-28T06:19:00.200Z,7.10
2019-01-28T06:20:00.202Z,7.20
2019-01-28T06:21:00.028Z,7.30
2019-01-28T06:21:59.951Z,7.30
2019-01-28T06:22:59.855Z,7.10
2019-01-28T06:23:59.764Z,7.50
2019-01-28T06:24:59.677Z,7.70
2019-01-28T06:25:59.590Z,7.30
2019-01-28T06:26:59.503Z,7.70
2019-01-28T06:27:59.413Z,6.90
2019-01-28T06:28:59.331Z,8.00
2019-01-28T06:29:59.239Z,7.90
2019-01-28T06:30:59.152Z,7.70
2019-01-28T06:31:59.064Z,7.70
2019-01-28T06:32:58.978Z,7.80
2019-01-28T06:33:58.891Z,7.90
2019-01-28T06:34:58.804Z,7.50
2019-01-28T06:35:58.715Z,7.70
2019-01-28T06:36:58.629Z,7.70
2019-01-28T06:37:58.555Z,8.10
2019-01-28T06:38:58.454Z,8.00
2019-01-28T06:39:58.365Z,8.00
2019-01-28T06:40:58.278Z,8.20
2019-01-28T06:41:58.191Z,8.10
2019-01-28T06:42:58.092Z,8.60
2019-01-28T06:43:58.015Z,8.40
2019-01-28T06:44:57.918Z,8.30
2019-01-28T06:45:57.830Z,8.60
2019-01-28T06:46:57.741Z,8.00
2019-01-28T06:47:57.654Z,9.10
2019-01-28T06:48:57.580Z,8.40
2019-01-28T06:49:57.479Z,8.10
2019-01-28T06:50:57.392Z,8.60
2019-01-28T06:51:57.306Z,8.80
2019-01-28T06:52:57.216Z,9.10
2019-01-28T06:53:57.141Z,9.30
2019-01-28T06:54:57.042Z,9.10
2019-01-28T06:55:56.954Z,9.00
2019-01-28T06:56:56.868Z,9.20
2019-01-28T06:57:56.781Z,9.90
2019-01-28T06:58:56.692Z,9.40
2019-01-28T06:59:56.605Z,10.20
2019-01-28T07:00:56.517Z,10.20
2019-01-28T07:01:56.430Z,9.60
2019-01-28T07:02:56.344Z,10.30
2019-01-28T07:03:56.256Z,9.50
2019-01-28T07:04:56.181Z,10.90
2019-01-28T07:05:56.081Z,10.90
2019-01-28T07:06:55.994Z,10.60
2019-01-28T07:07:55.906Z,11.00
2019-01-28T07:08:55.818Z,10.90
2019-01-28T07:09:55.731Z,10.60
2019-01-28T07:10:55.643Z,10.90
2019-01-28T07:11:55.562Z,10.90
2019-01-28T07:12:55.468Z,11.20
2019-01-28T07:13:55.373Z,10.80
2019-01-28T07:14:55.281Z,11.30
2019-01-28T07:15:55.197Z,11.30
2019-01-28T07:16:55.108Z,11.90
2019-01-28T07:17:55.381Z,11.20
2019-01-28T07:18:54.932Z,11.80
2019-01-28T07:19:54.844Z,11.20
2019-01-28T07:20:54.758Z,10.90
2019-01-28T07:21:54.670Z,12.30
2019-01-28T07:22:54.582Z,11.70
2019-01-28T07:23:54.496Z,12.00
2019-01-28T07:24:54.409Z,11.50
2019-01-28T07:25:54.320Z,12.50
2019-01-28T07:26:54.234Z,11.80
2019-01-28T07:27:54.147Z,12.50
2019-01-28T07:28:54.058Z,12.20
2019-01-28T07:29:53.971Z,11.90
2019-01-28T07:30:53.885Z,12.00
2019-01-28T07:31:53.795Z,12.20
2019-01-28T07:32:53.709Z,12.10
2019-01-28T07:33:53.621Z,12.80
2019-01-28T07:34:53.533Z,11.80
2019-01-28T07:35:53.446Z,12.10
2019-01-28T07:36:53.358Z,12.60
2019-01-28T07:37:53.259Z,12.00
2019-01-28T07:38:53.172Z,12.10
2019-01-28T07:39:53.084Z,11.60
2019-01-28T07:40:53.010Z,12.60
2019-01-28T07:41:52.910Z,12.30
2019-01-28T07:42:52.822Z,13.60
2019-01-28T07:43:52.742Z,12.30
2019-01-28T07:44:52.647Z,12.30
2019-01-28T07:45:52.561Z,12.80
2019-01-28T07:46:52.471Z,13.00
2019-01-28T07:47:52.385Z,11.80
2019-01-28T07:48:52.310Z,12.50
2019-01-28T07:49:52.210Z,12.60
2019-01-28T07:50:52.123Z,12.50
2019-01-28T07:51:52.036Z,12.50
2019-01-28T07:52:51.948Z,13.20
2019-01-28T07:53:51.860Z,12.90
2019-01-28T07:54:51.773Z,13.00
2019-01-28T07:55:51.687Z,12.40
2019-01-28T07:56:51.599Z,13.00
2019-01-28T07:57:51.512Z,12.80
2019-01-28T07:58:51.422Z,12.80
2019-01-28T07:59:51.336Z,13.30
2019-01-28T08:00:51.249Z,13.60
2019-01-28T08:01:51.163Z,14.10
2019-01-28T08:02:51.074Z,13.90
2019-01-28T08:03:50.988Z,13.60
2019-01-28T08:04:50.917Z,13.70
2019-01-28T08:05:50.800Z,14.00
2019-01-28T08:06:59.200Z,13.80
2019-01-28T08:07:50.624Z,13.30
2019-01-28T08:08:50.538Z,14.00
2019-01-28T08:09:50.449Z,14.70
2019-01-28T08:10:50.362Z,14.60
2019-01-28T08:11:50.275Z,13.90
2019-01-28T08:12:50.191Z,15.90
2019-01-28T08:13:50.100Z,15.70
2019-01-28T08:14:50.014Z,15.50
2019-01-28T08:15:49.937Z,15.30
2019-01-28T08:16:49.839Z,14.20
2019-01-28T08:17:49.750Z,15.70
2019-01-28T08:18:49.665Z,15.20
2019-01-28T08:19:49.576Z,15.50
2019-01-28T08:20:49.490Z,14.50
2019-01-28T08:21:49.400Z,15.30
2019-01-28T08:22:49.314Z,15.50
2019-01-28T08:23:49.227Z,16.20
2019-01-28T08:24:49.141Z,15.60
2019-01-28T08:25:49.051Z,15.40
2019-01-28T08:26:48.964Z,15.30
2019-01-28T08:27:48.877Z,14.80
2019-01-28T08:28:48.789Z,15.50
2019-01-28T08:29:48.701Z,14.30
2019-01-28T08:30:48.615Z,14.40
2019-01-28T08:31:48.527Z,14.60
2019-01-28T08:32:48.440Z,14.20
2019-01-28T08:33:48.355Z,13.50
2019-01-28T08:34:49.526Z,14.00
2019-01-28T08:35:48.190Z,13.90
2019-01-28T08:36:48.102Z,13.20
2019-01-28T08:37:48.022Z,14.10
2019-01-28T08:38:47.927Z,13.30
2019-01-28T08:39:47.841Z,13.70
2019-01-28T08:40:47.757Z,13.70
2019-01-28T08:41:47.666Z,13.00
2019-01-28T08:42:47.578Z,13.40
2019-01-28T08:43:47.493Z,13.50
2019-01-28T08:44:47.406Z,13.20
2019-01-28T08:45:47.317Z,13.80
2019-01-28T08:46:47.228Z,13.20
2019-01-28T08:47:47.141Z,12.10
2019-01-28T08:48:47.054Z,12.20
2019-01-28T08:49:46.966Z,11.30
2019-01-28T08:50:46.883Z,12.20
2019-01-28T08:51:46.791Z,12.00
2019-01-28T08:52:46.704Z,11.90
2019-01-28T08:53:46.618Z,12.60
2019-01-28T08:54:46.529Z,11.10
2019-01-28T08:55:46.441Z,11.30
2019-01-28T08:56:46.355Z,11.10
2019-01-28T08:57:46.270Z,11.70
2019-01-28T08:58:46.195Z,11.00
2019-01-28T08:59:46.104Z,10.80
2019-01-28T09:00:46.019Z,11.10
2019-01-28T09:01:45.929Z,9.70
2019-01-28T09:02:45.843Z,10.10
2019-01-28T09:03:45.756Z,9.90
2019-01-28T09:04:45.668Z,10.30
2019-01-28T09:05:45.580Z,10.00
2019-01-28T09:06:45.494Z,10.30
2019-01-28T09:07:45.408Z,10.40
2019-01-28T09:08:45.319Z,9.40
2019-01-28T09:09:45.230Z,10.00
2019-01-28T09:10:45.144Z,9.40
2019-01-28T09:11:45.055Z,9.60
2019-01-28T09:12:44.981Z,9.00
2019-01-28T09:13:44.895Z,8.10
2019-01-28T09:14:44.808Z,8.60
2019-01-28T09:15:44.719Z,8.40
2019-01-28T09:16:44.632Z,8.60
2019-01-28T09:17:44.544Z,8.80
2019-01-28T09:18:44.459Z,8.40
2019-01-28T09:19:44.370Z,8.30
2019-01-28T09:20:44.282Z,7.50
2019-01-28T09:21:44.195Z,7.20
2019-01-28T09:22:44.107Z,7.10
2019-01-28T09:23:44.032Z,6.90
2019-01-28T09:24:43.945Z,7.20
2019-01-28T09:25:43.857Z,6.80
2019-01-28T09:26:43.771Z,6.50
2019-01-28T09:27:43.682Z,7.00
2019-01-28T09:28:43.598Z,7.00
2019-01-28T09:29:43.520Z,7.20
2019-01-28T09:30:43.421Z,7.30
2019-01-28T09:31:43.333Z,7.70
2019-01-28T09:32:43.257Z,7.50
2019-01-28T09:33:43.170Z,7.00
2019-01-28T09:34:43.087Z,6.90
2019-01-28T09:35:42.996Z,6.70
2019-01-28T09:36:42.908Z,6.80
2019-01-28T09:37:42.825Z,6.50
2019-01-28T09:38:42.735Z,6.10
2019-01-28T09:39:42.646Z,6.20
2019-01-28T09:40:42.571Z,6.50
2019-01-28T09:41:42.483Z,6.40
2019-01-28T09:42:42.405Z,7.30
2019-01-28T09:43:42.309Z,6.20
2019-01-28T09:44:42.221Z,5.60
2019-01-28T09:45:42.136Z,6.00
2019-01-28T09:46:42.047Z,5.50
2019-01-28T09:47:41.972Z,6.20
2019-01-28T09:48:41.873Z,5.80
2019-01-28T09:49:41.788Z,5.90
2019-01-28T09:50:41.711Z,6.00
2019-01-28T09:51:41.622Z,6.20
2019-01-28T09:52:41.537Z,6.00
2019-01-28T09:53:41.448Z,6.40
2019-01-28T09:54:41.361Z,6.00
2019-01-28T09:55:41.273Z,5.90
2019-01-28T09:56:41.190Z,5.70
2019-01-28T09:57:41.099Z,5.60
2019-01-28T09:58:41.011Z,5.40
2019-01-28T09:59:40.951Z,5.60
2019-01-28T10:00:40.848Z,5.10
2019-01-28T10:01:40.765Z,5.70
2019-01-28T10:02:40.674Z,5.60
2019-01-28T10:03:40.598Z,5.80
2019-01-28T10:04:40.499Z,5.60
2019-01-28T10:05:40.412Z,5.80
2019-01-28T10:06:40.323Z,5.70
2019-01-28T10:07:40.240Z,5.70
2019-01-28T10:08:40.161Z,5.60
2019-01-28T10:09:40.074Z,6.10
2019-01-28T10:10:39.987Z,5.50
2019-01-28T10:11:39.901Z,5.50
2019-01-28T10:12:39.813Z,5.90
2019-01-28T10:13:39.725Z,5.70
2019-01-28T10:14:39.637Z,5.10
2019-01-28T10:15:39.550Z,5.60
2019-01-28T10:16:39.488Z,4.90
2019-01-28T10:17:39.399Z,4.90
2019-01-28T10:18:41.915Z,5.30
2019-01-28T10:19:39.212Z,5.50
2019-01-28T10:20:44.322Z,5.30
2019-01-28T10:21:39.037Z,4.90
2019-01-28T10:22:38.962Z,5.20
2019-01-28T10:23:38.865Z,4.90
2019-01-28T10:24:38.800Z,4.70
2019-01-28T10:25:38.700Z,4.90
2019-01-28T10:26:38.613Z,5.00
2019-01-28T10:27:38.526Z,4.90
2019-01-28T10:28:38.438Z,4.90
2019-01-28T10:29:38.365Z,4.90
2019-01-28T10:30:38.265Z,5.00
2019-01-28T10:31:38.201Z,4.80
2019-01-28T10:32:38.101Z,4.50
2019-01-28T10:33:38.015Z,4.90
2019-01-28T10:34:37.926Z,4.40
2019-01-28T10:35:37.839Z,4.60
2019-01-28T10:36:37.763Z,4.60
2019-01-28T10:37:37.664Z,4.30
2019-01-28T10:38:37.597Z,4.50
2019-01-28T10:39:37.502Z,4.50
2019-01-28T10:40:37.414Z,4.40
2019-01-28T10:41:37.328Z,4.60
2019-01-28T10:42:37.241Z,4.50
2019-01-28T10:43:37.164Z,4.40
2019-01-28T10:44:37.077Z,3.90
2019-01-28T10:45:36.990Z,4.30
2019-01-28T10:46:36.904Z,4.60
2019-01-28T10:47:36.814Z,4.00
2019-01-28T10:48:36.728Z,3.70
2019-01-28T10:49:36.640Z,4.00
2019-01-28T10:50:36.565Z,4.10
2019-01-28T10:51:36.478Z,3.70
2019-01-28T10:52:36.391Z,4.00
2019-01-28T10:53:36.304Z,3.80
2019-01-28T10:54:36.216Z,3.70
2019-01-28T10:55:36.141Z,4.00
2019-01-28T10:56:36.055Z,3.90
2019-01-28T10:57:35.966Z,3.60
2019-01-28T10:58:35.879Z,4.20
2019-01-28T10:59:35.792Z,3.40
2019-01-28T11:00:35.717Z,3.70
2019-01-28T11:01:35.630Z,3.70
2019-01-28T11:02:35.541Z,3.70
2019-01-28T11:03:35.456Z,3.40
2019-01-28T11:04:35.368Z,3.20
2019-01-28T11:05:35.292Z,3.20
2019-01-28T11:06:35.206Z,3.20
2019-01-28T11:07:35.117Z,3.20
2019-01-28T11:08:35.031Z,3.10
2019-01-28T11:09:34.969Z,3.20
2019-01-28T11:10:34.868Z,2.90
2019-01-28T11:11:34.781Z,3.40
2019-01-28T11:12:34.692Z,3.20
2019-01-28T11:13:34.614Z,3.10
2019-01-28T11:14:34.658Z,2.90
2019-01-28T11:15:34.615Z,3.30
2019-01-28T11:16:34.359Z,3.10
2019-01-28T11:17:34.300Z,3.00
2019-01-28T11:18:34.290Z,2.90
2019-01-28T11:19:34.217Z,3.10
2019-01-28T11:20:34.019Z,2.80
2019-01-28T11:21:34.072Z,2.80
2019-01-28T11:22:33.963Z,2.70
2019-01-28T11:23:33.896Z,2.80
2019-01-28T11:24:33.698Z,2.80
2019-01-28T11:25:33.733Z,3.00
2019-01-28T11:26:33.547Z,2.70
2019-01-28T11:27:33.432Z,2.80
2019-01-28T11:28:33.472Z,2.80
2019-01-28T11:29:33.290Z,2.90
2019-01-28T11:30:33.186Z,3.00
2019-01-28T11:31:33.136Z,2.50
2019-01-28T11:32:33.081Z,2.60
2019-01-28T11:33:32.958Z,2.60
2019-01-28T11:34:32.858Z,2.60
2019-01-28T11:35:32.805Z,2.50
2019-01-28T11:36:32.683Z,2.60
2019-01-28T11:37:32.666Z,2.60
2019-01-28T11:38:32.616Z,2.40
2019-01-28T11:39:32.479Z,2.60
2019-01-28T11:40:32.369Z,2.50
2019-01-28T11:41:32.260Z,2.50
2019-01-28T11:42:32.326Z,2.90
2019-01-28T11:43:32.096Z,2.60
2019-01-28T11:44:32.014Z,2.60
2019-01-28T11:45:31.983Z,2.10
2019-01-28T11:46:31.846Z,2.40
2019-01-28T11:47:31.790Z,2.40
2019-01-28T11:48:32.743Z,2.80
2019-01-28T11:49:31.646Z,2.60
2019-01-28T11:50:31.509Z,2.60
2019-01-28T11:51:31.422Z,2.40
2019-01-28T11:52:31.334Z,2.50
2019-01-28T11:53:31.259Z,2.30
2019-01-28T11:54:31.173Z,2.10
2019-01-28T11:55:31.085Z,2.20
2019-01-28T11:56:31.013Z,2.30
2019-01-28T11:57:30.922Z,2.40
2019-01-28T11:58:30.836Z,2.40
2019-01-28T11:59:30.748Z,2.40
2019-01-28T12:00:30.675Z,2.40
2019-01-28T12:01:30.587Z,2.60
2019-01-28T12:02:34.353Z,2.40
2019-01-28T12:03:30.410Z,2.20
2019-01-28T12:04:30.336Z,2.30
2019-01-28T12:05:30.248Z,2.30
2019-01-28T12:06:30.162Z,2.20
2019-01-28T12:07:30.073Z,2.30
2019-01-28T12:08:29.999Z,2.10
2019-01-28T12:09:29.912Z,2.10
2019-01-28T12:10:29.825Z,2.20
2019-01-28T12:11:29.738Z,2.10
2019-01-28T12:12:29.663Z,2.30
2019-01-28T12:13:29.574Z,2.10
2019-01-28T12:14:29.498Z,2.20
2019-01-28T12:15:29.401Z,2.20
2019-01-28T12:16:29.340Z,1.80
2019-01-28T12:17:29.237Z,2.00
2019-01-28T12:18:29.149Z,1.90
2019-01-28T12:19:29.064Z,2.00
2019-01-28T12:20:28.987Z,2.10
2019-01-28T12:21:28.899Z,1.80
2019-01-28T12:22:28.812Z,2.10
2019-01-28T12:23:28.737Z,2.10
2019-01-28T12:24:28.638Z,1.90
2019-01-28T12:25:28.567Z,2.10
2019-01-28T12:26:28.475Z,2.10
2019-01-28T12:27:28.388Z,1.80
2019-01-28T12:28:28.300Z,1.90
2019-01-28T12:29:28.238Z,2.10
2019-01-28T12:30:28.138Z,1.70
2019-01-28T12:31:28.050Z,2.10
2019-01-28T12:32:27.964Z,2.00
2019-01-28T12:33:27.892Z,1.80
2019-01-28T12:34:27.808Z,1.80
2019-01-28T12:35:27.714Z,1.90
2019-01-28T12:36:27.627Z,2.10
2019-01-28T12:37:27.550Z,2.30
2019-01-28T12:38:27.464Z,2.00
2019-01-28T12:39:27.380Z,1.60
2019-01-28T12:40:27.301Z,2.00
2019-01-28T12:41:27.214Z,1.90
2019-01-28T12:42:27.126Z,1.60
2019-01-28T12:43:27.054Z,1.70
2019-01-28T12:44:26.965Z,1.90
2019-01-28T12:45:26.878Z,1.70
2019-01-28T12:46:26.791Z,1.90
2019-01-28T12:47:26.715Z,1.80
2019-01-28T12:48:26.627Z,1.60
2019-01-28T12:49:26.541Z,1.90
2019-01-28T12:50:26.466Z,1.70
2019-01-28T12:51:26.377Z,1.80
2019-01-28T12:52:26.290Z,1.90
2019-01-28T12:53:26.216Z,1.80
2019-01-28T12:54:26.128Z,1.70
2019-01-28T12:55:26.053Z,1.50
2019-01-28T12:56:25.966Z,1.60
2019-01-28T12:57:25.881Z,1.70
2019-01-28T12:58:25.791Z,1.50
2019-01-28T12:59:25.716Z,1.70
2019-01-28T13:00:25.628Z,1.50
2019-01-28T13:01:25.542Z,1.50
2019-01-28T13:02:25.453Z,1.60
2019-01-28T13:03:25.378Z,1.60
2019-01-28T13:04:25.292Z,1.60
2019-01-28T13:05:25.217Z,1.60
2019-01-28T13:06:25.117Z,1.60
2019-01-28T13:07:25.044Z,1.60
2019-01-28T13:08:24.954Z,1.70
2019-01-28T13:09:24.871Z,1.50
2019-01-28T13:10:24.780Z,1.60
2019-01-28T13:11:24.717Z,1.70